sensor_id;sensor_type;location;lat;lon;timestamp;pressure;altitude;pressure_sealevel;temperature;humidity
6349;BME280;3207;42.648;23.406;2023-04-26T00:00:32;99598.56;;;14.80;nan
6349;BME280;3207;42.648;23.406;2023-04-26T00:03:01;99613.91;;;14.85;nan
6349;BME280;3207;42.648;23.406;2023-04-26T00:05:28;99608.94;;;14.82;nan
6349;BME280;3207;42.648;23.406;2023-04-26T00:07:55;99606.59;;;14.79;nan
6349;BME280;3207;42.648;23.406;2023-04-26T00:10:22;99608.41;;;14.78;nan
6349;BME280;3207;42.648;23.406;2023-04-26T00:12:49;99618.84;;;14.70;nan
6349;BME280;3207;42.648;23.406;2023-04-26T00:15:16;99615.31;;;14.61;nan
6349;BME280;3207;42.648;23.406;2023-04-26T00:17:42;99613.78;;;14.59;nan
6349;BME280;3207;42.648;23.406;2023-04-26T00:20:11;99612.41;;;14.55;nan
6349;BME280;3207;42.648;23.406;2023-04-26T00:22:39;99622.56;;;14.50;nan
6349;BME280;3207;42.648;23.406;2023-04-26T00:25:06;99606.50;;;14.43;nan
6349;BME280;3207;42.648;23.406;2023-04-26T00:27:33;99613.44;;;14.35;nan
6349;BME280;3207;42.648;23.406;2023-04-26T00:29:59;99615.81;;;14.38;nan
6349;BME280;3207;42.648;23.406;2023-04-26T00:32:26;99615.81;;;14.38;nan
6349;BME280;3207;42.648;23.406;2023-04-26T00:34:53;99616.53;;;14.40;nan
6349;BME280;3207;42.648;23.406;2023-04-26T00:37:21;99619.66;;;14.43;nan
6349;BME280;3207;42.648;23.406;2023-04-26T00:39:48;99599.75;;;14.31;nan
6349;BME280;3207;42.648;23.406;2023-04-26T00:42:15;99624.25;;;14.41;nan
6349;BME280;3207;42.648;23.406;2023-04-26T00:44:43;99625.91;;;14.42;nan
6349;BME280;3207;42.648;23.406;2023-04-26T00:47:10;99630.50;;;14.40;nan
6349;BME280;3207;42.648;23.406;2023-04-26T00:49:37;99627.88;;;14.40;nan
6349;BME280;3207;42.648;23.406;2023-04-26T00:52:04;99631.16;;;14.42;nan
6349;BME280;3207;42.648;23.406;2023-04-26T00:54:32;99623.69;;;14.38;nan
6349;BME280;3207;42.648;23.406;2023-04-26T00:56:59;99639.03;;;14.42;nan
6349;BME280;3207;42.648;23.406;2023-04-26T00:59:26;99644.63;;;14.39;nan
6349;BME280;3207;42.648;23.406;2023-04-26T01:01:53;99645.59;;;14.28;nan
6349;BME280;3207;42.648;23.406;2023-04-26T01:04:20;99644.06;;;14.26;nan
6349;BME280;3207;42.648;23.406;2023-04-26T01:06:50;99645.59;;;14.28;nan
6349;BME280;3207;42.648;23.406;2023-04-26T01:09:17;99644.75;;;14.28;nan
6349;BME280;3207;42.648;23.406;2023-04-26T01:11:46;99650.56;;;14.22;nan
6349;BME280;3207;42.648;23.406;2023-04-26T01:14:14;99654.47;;;14.18;nan
6349;BME280;3207;42.648;23.406;2023-04-26T01:16:41;99655.59;;;14.15;nan
6349;BME280;3207;42.648;23.406;2023-04-26T01:19:11;99657.97;;;14.09;nan
6349;BME280;3207;42.648;23.406;2023-04-26T01:21:39;99666.03;;;13.98;nan
6349;BME280;3207;42.648;23.406;2023-04-26T01:24:08;99677.06;;;13.91;nan
6349;BME280;3207;42.648;23.406;2023-04-26T01:26:36;99673.91;;;13.78;nan
6349;BME280;3207;42.648;23.406;2023-04-26T01:29:12;99680.13;;;13.77;nan
6349;BME280;3207;42.648;23.406;2023-04-26T01:31:40;99678.78;;;13.73;nan
6349;BME280;3207;42.648;23.406;2023-04-26T01:34:06;99679.19;;;13.69;nan
6349;BME280;3207;42.648;23.406;2023-04-26T01:36:33;99673.41;;;13.65;nan
6349;BME280;3207;42.648;23.406;2023-04-26T01:39:00;99691.06;;;13.63;nan
6349;BME280;3207;42.648;23.406;2023-04-26T01:41:28;99680.00;;;13.60;nan
6349;BME280;3207;42.648;23.406;2023-04-26T01:43:55;99689.69;;;13.59;nan
6349;BME280;3207;42.648;23.406;2023-04-26T01:46:22;99680.59;;;13.53;nan
6349;BME280;3207;42.648;23.406;2023-04-26T01:48:49;99687.75;;;13.51;nan
6349;BME280;3207;42.648;23.406;2023-04-26T01:51:16;99693.84;;;13.52;nan
6349;BME280;3207;42.648;23.406;2023-04-26T01:53:42;99692.44;;;13.48;nan
6349;BME280;3207;42.648;23.406;2023-04-26T01:56:09;99677.50;;;13.29;nan
6349;BME280;3207;42.648;23.406;2023-04-26T01:58:37;99694.38;;;13.36;nan
6349;BME280;3207;42.648;23.406;2023-04-26T02:01:06;99698.25;;;13.32;nan
6349;BME280;3207;42.648;23.406;2023-04-26T02:03:33;99661.28;;;13.05;nan
6349;BME280;3207;42.648;23.406;2023-04-26T02:06:00;99703.75;;;13.19;nan
6349;BME280;3207;42.648;23.406;2023-04-26T02:08:27;99705.69;;;13.17;nan
6349;BME280;3207;42.648;23.406;2023-04-26T02:10:54;99709.53;;;13.13;nan
6349;BME280;3207;42.648;23.406;2023-04-26T02:13:21;99715.88;;;13.11;nan
6349;BME280;3207;42.648;23.406;2023-04-26T02:15:49;99711.00;;;13.06;nan
6349;BME280;3207;42.648;23.406;2023-04-26T02:18:16;99709.34;;;13.05;nan
6349;BME280;3207;42.648;23.406;2023-04-26T02:20:46;99715.84;;;13.01;nan
6349;BME280;3207;42.648;23.406;2023-04-26T02:23:14;99716.81;;;13.00;nan
6349;BME280;3207;42.648;23.406;2023-04-26T02:25:44;99719.94;;;12.94;nan
6349;BME280;3207;42.648;23.406;2023-04-26T02:28:11;99716.78;;;12.91;nan
6349;BME280;3207;42.648;23.406;2023-04-26T02:30:38;99716.09;;;12.89;nan
6349;BME280;3207;42.648;23.406;2023-04-26T02:33:07;99704.03;;;12.76;nan
6349;BME280;3207;42.648;23.406;2023-04-26T02:35:34;99714.53;;;12.86;nan
6349;BME280;3207;42.648;23.406;2023-04-26T02:38:01;99722.38;;;12.76;nan
6349;BME280;3207;42.648;23.406;2023-04-26T02:40:28;99714.91;;;12.72;nan
6349;BME280;3207;42.648;23.406;2023-04-26T02:42:55;99721.69;;;12.74;nan
6349;BME280;3207;42.648;23.406;2023-04-26T02:45:22;99727.06;;;12.73;nan
6349;BME280;3207;42.648;23.406;2023-04-26T02:47:49;99724.63;;;12.81;nan
6349;BME280;3207;42.648;23.406;2023-04-26T02:50:17;99736.19;;;12.78;nan
6349;BME280;3207;42.648;23.406;2023-04-26T02:52:44;99725.69;;;12.69;nan
6349;BME280;3207;42.648;23.406;2023-04-26T02:55:11;99732.13;;;12.65;nan
6349;BME280;3207;42.648;23.406;2023-04-26T02:57:37;99742.78;;;12.73;nan
6349;BME280;3207;42.648;23.406;2023-04-26T03:00:05;99741.97;;;12.72;nan
6349;BME280;3207;42.648;23.406;2023-04-26T03:02:32;99734.50;;;12.68;nan
6349;BME280;3207;42.648;23.406;2023-04-26T03:05:00;99743.34;;;12.67;nan
6349;BME280;3207;42.648;23.406;2023-04-26T03:07:28;99749.63;;;12.55;nan
6349;BME280;3207;42.648;23.406;2023-04-26T03:09:55;99744.63;;;12.52;nan
6349;BME280;3207;42.648;23.406;2023-04-26T03:12:22;99752.06;;;12.46;nan
6349;BME280;3207;42.648;23.406;2023-04-26T03:58:57;99772.19;;;11.72;nan
6349;BME280;3207;42.648;23.406;2023-04-26T04:18:38;99816.34;;;11.77;nan
6349;BME280;3207;42.648;23.406;2023-04-26T06:50:27;99951.22;;;14.51;nan
6349;BME280;3207;42.648;23.406;2023-04-26T07:00:15;99952.03;;;14.81;nan
6349;BME280;3207;42.648;23.406;2023-04-26T07:29:37;99955.94;;;16.96;nan
6349;BME280;3207;42.648;23.406;2023-04-26T07:49:12;99977.44;;;18.12;nan
6349;BME280;3207;42.648;23.406;2023-04-26T08:48:05;99988.22;;;18.93;nan
6349;BME280;3207;42.648;23.406;2023-04-26T09:15:17;99950.41;;;19.48;nan
6349;BME280;3207;42.648;23.406;2023-04-26T09:17:43;99953.03;;;19.56;nan
6349;BME280;3207;42.648;23.406;2023-04-26T09:35:33;99942.91;;;19.60;nan
6349;BME280;3207;42.648;23.406;2023-04-26T09:38:02;99940.44;;;19.34;nan
6349;BME280;3207;42.648;23.406;2023-04-26T09:45:26;99939.72;;;19.64;nan
6349;BME280;3207;42.648;23.406;2023-04-26T09:47:53;99932.50;;;19.89;nan
6349;BME280;3207;42.648;23.406;2023-04-26T09:50:27;99950.59;;;19.86;nan
6349;BME280;3207;42.648;23.406;2023-04-26T09:52:55;99964.47;;;19.96;nan
6349;BME280;3207;42.648;23.406;2023-04-26T09:55:26;99927.97;;;19.98;nan
6349;BME280;3207;42.648;23.406;2023-04-26T09:57:55;99925.63;;;20.34;nan
6349;BME280;3207;42.648;23.406;2023-04-26T10:00:25;99929.28;;;20.56;nan
6349;BME280;3207;42.648;23.406;2023-04-26T10:05:20;99920.53;;;20.70;nan
6349;BME280;3207;42.648;23.406;2023-04-26T10:07:48;99924.91;;;21.00;nan
6349;BME280;3207;42.648;23.406;2023-04-26T10:10:17;99955.63;;;21.26;nan
6349;BME280;3207;42.648;23.406;2023-04-26T10:12:46;99948.56;;;21.62;nan
6349;BME280;3207;42.648;23.406;2023-04-26T10:15:14;99956.47;;;21.70;nan
6349;BME280;3207;42.648;23.406;2023-04-26T10:17:49;99963.41;;;21.42;nan
6349;BME280;3207;42.648;23.406;2023-04-26T10:20:18;99956.81;;;21.38;nan
6349;BME280;3207;42.648;23.406;2023-04-26T10:22:51;99951.66;;;20.99;nan
6349;BME280;3207;42.648;23.406;2023-04-26T10:25:19;99949.72;;;20.55;nan
6349;BME280;3207;42.648;23.406;2023-04-26T10:27:50;99951.59;;;20.69;nan
6349;BME280;3207;42.648;23.406;2023-04-26T10:30:21;99950.41;;;20.95;nan
6349;BME280;3207;42.648;23.406;2023-04-26T10:33:15;99946.03;;;21.16;nan
6349;BME280;3207;42.648;23.406;2023-04-26T10:36:10;99950.56;;;21.31;nan
6349;BME280;3207;42.648;23.406;2023-04-26T10:38:38;99947.03;;;21.15;nan
6349;BME280;3207;42.648;23.406;2023-04-26T10:41:32;99953.06;;;21.09;nan
6349;BME280;3207;42.648;23.406;2023-04-26T10:47:04;99942.78;;;20.69;nan
6349;BME280;3207;42.648;23.406;2023-04-26T10:49:42;99943.94;;;20.89;nan
6349;BME280;3207;42.648;23.406;2023-04-26T10:52:11;99934.53;;;21.01;nan
6349;BME280;3207;42.648;23.406;2023-04-26T10:54:49;99923.88;;;21.24;nan
6349;BME280;3207;42.648;23.406;2023-04-26T10:57:16;99934.06;;;21.21;nan
6349;BME280;3207;42.648;23.406;2023-04-26T11:00:15;99926.00;;;21.29;nan
6349;BME280;3207;42.648;23.406;2023-04-26T11:02:55;99921.75;;;21.64;nan
6349;BME280;3207;42.648;23.406;2023-04-26T11:05:33;99918.81;;;21.88;nan
6349;BME280;3207;42.648;23.406;2023-04-26T11:08:04;99917.75;;;21.68;nan
6349;BME280;3207;42.648;23.406;2023-04-26T11:10:30;99924.81;;;21.61;nan
6349;BME280;3207;42.648;23.406;2023-04-26T11:13:01;99926.34;;;21.40;nan
6349;BME280;3207;42.648;23.406;2023-04-26T11:15:28;99916.16;;;21.73;nan
6349;BME280;3207;42.648;23.406;2023-04-26T11:17:58;99910.63;;;22.04;nan
6349;BME280;3207;42.648;23.406;2023-04-26T11:20:28;99919.47;;;22.69;nan
6349;BME280;3207;42.648;23.406;2023-04-26T11:22:55;99921.78;;;22.99;nan
6349;BME280;3207;42.648;23.406;2023-04-26T11:25:24;99921.41;;;23.03;nan
6349;BME280;3207;42.648;23.406;2023-04-26T11:27:51;99927.03;;;22.86;nan
6349;BME280;3207;42.648;23.406;2023-04-26T11:30:22;99909.94;;;22.17;nan
6349;BME280;3207;42.648;23.406;2023-04-26T11:32:48;99910.06;;;21.94;nan
6349;BME280;3207;42.648;23.406;2023-04-26T11:35:17;99903.97;;;21.64;nan
6349;BME280;3207;42.648;23.406;2023-04-26T11:37:44;99913.13;;;21.76;nan
6349;BME280;3207;42.648;23.406;2023-04-26T11:40:11;99909.47;;;21.77;nan
6349;BME280;3207;42.648;23.406;2023-04-26T11:42:38;99904.50;;;21.15;nan
6349;BME280;3207;42.648;23.406;2023-04-26T11:45:07;99908.41;;;20.90;nan
6349;BME280;3207;42.648;23.406;2023-04-26T11:47:34;99914.56;;;21.28;nan
6349;BME280;3207;42.648;23.406;2023-04-26T11:50:01;99909.13;;;21.51;nan
6349;BME280;3207;42.648;23.406;2023-04-26T11:52:30;99909.13;;;21.36;nan
6349;BME280;3207;42.648;23.406;2023-04-26T11:55:00;99916.84;;;21.46;nan
6349;BME280;3207;42.648;23.406;2023-04-26T11:57:30;99901.06;;;21.59;nan
6349;BME280;3207;42.648;23.406;2023-04-26T12:00:09;99901.25;;;21.93;nan
6349;BME280;3207;42.648;23.406;2023-04-26T12:02:43;99905.25;;;22.19;nan
6349;BME280;3207;42.648;23.406;2023-04-26T12:05:10;99904.59;;;21.81;nan
6349;BME280;3207;42.648;23.406;2023-04-26T12:07:39;99911.88;;;21.28;nan
6349;BME280;3207;42.648;23.406;2023-04-26T12:10:16;99904.31;;;21.02;nan
6349;BME280;3207;42.648;23.406;2023-04-26T12:12:45;99906.91;;;20.88;nan
6349;BME280;3207;42.648;23.406;2023-04-26T12:15:13;99904.22;;;20.96;nan
6349;BME280;3207;42.648;23.406;2023-04-26T12:17:50;99875.50;;;20.91;nan
6349;BME280;3207;42.648;23.406;2023-04-26T12:20:18;99901.53;;;21.18;nan
6349;BME280;3207;42.648;23.406;2023-04-26T12:22:57;99906.84;;;21.18;nan
6349;BME280;3207;42.648;23.406;2023-04-26T12:25:25;99901.44;;;21.27;nan
6349;BME280;3207;42.648;23.406;2023-04-26T12:27:52;99904.00;;;21.35;nan
6349;BME280;3207;42.648;23.406;2023-04-26T12:30:19;99898.31;;;21.38;nan
6349;BME280;3207;42.648;23.406;2023-04-26T12:32:46;99896.31;;;21.40;nan
6349;BME280;3207;42.648;23.406;2023-04-26T12:35:13;99863.25;;;21.19;nan
6349;BME280;3207;42.648;23.406;2023-04-26T12:37:40;99893.19;;;21.36;nan
6349;BME280;3207;42.648;23.406;2023-04-26T12:40:10;99886.25;;;21.12;nan
6349;BME280;3207;42.648;23.406;2023-04-26T12:42:37;99892.75;;;20.95;nan
6349;BME280;3207;42.648;23.406;2023-04-26T12:45:04;99896.50;;;20.86;nan
6349;BME280;3207;42.648;23.406;2023-04-26T12:47:32;99891.38;;;20.85;nan
6349;BME280;3207;42.648;23.406;2023-04-26T12:49:59;99865.75;;;20.69;nan
6349;BME280;3207;42.648;23.406;2023-04-26T12:52:26;99888.84;;;20.68;nan
6349;BME280;3207;42.648;23.406;2023-04-26T12:54:53;99884.34;;;20.69;nan
6349;BME280;3207;42.648;23.406;2023-04-26T12:57:21;99883.00;;;20.73;nan
6349;BME280;3207;42.648;23.406;2023-04-26T12:59:48;99885.34;;;20.68;nan
6349;BME280;3207;42.648;23.406;2023-04-26T13:02:15;99887.38;;;20.66;nan
6349;BME280;3207;42.648;23.406;2023-04-26T13:04:41;99876.88;;;20.50;nan
6349;BME280;3207;42.648;23.406;2023-04-26T13:07:08;99884.13;;;20.33;nan
6349;BME280;3207;42.648;23.406;2023-04-26T13:09:35;99882.41;;;20.17;nan
6349;BME280;3207;42.648;23.406;2023-04-26T13:12:02;99884.34;;;19.69;nan
6349;BME280;3207;42.648;23.406;2023-04-26T13:14:31;99879.28;;;19.44;nan
6349;BME280;3207;42.648;23.406;2023-04-26T13:16:57;99878.78;;;19.40;nan
6349;BME280;3207;42.648;23.406;2023-04-26T13:19:24;99878.00;;;19.31;nan
6349;BME280;3207;42.648;23.406;2023-04-26T13:21:51;99870.72;;;19.25;nan
6349;BME280;3207;42.648;23.406;2023-04-26T13:24:18;99873.22;;;19.27;nan
6349;BME280;3207;42.648;23.406;2023-04-26T13:26:45;99877.13;;;19.47;nan
6349;BME280;3207;42.648;23.406;2023-04-26T13:29:12;99872.28;;;19.59;nan
6349;BME280;3207;42.648;23.406;2023-04-26T13:31:40;99856.72;;;19.56;nan
6349;BME280;3207;42.648;23.406;2023-04-26T13:34:07;99868.56;;;19.76;nan
6349;BME280;3207;42.648;23.406;2023-04-26T13:36:34;99860.59;;;19.76;nan
6349;BME280;3207;42.648;23.406;2023-04-26T13:39:01;99857.16;;;19.98;nan
6349;BME280;3207;42.648;23.406;2023-04-26T13:41:29;99858.63;;;20.24;nan
6349;BME280;3207;42.648;23.406;2023-04-26T13:43:58;99849.78;;;20.31;nan
6349;BME280;3207;42.648;23.406;2023-04-26T13:46:25;99856.44;;;20.27;nan
6349;BME280;3207;42.648;23.406;2023-04-26T13:48:53;99853.50;;;20.22;nan
6349;BME280;3207;42.648;23.406;2023-04-26T13:51:21;99860.59;;;20.30;nan
6349;BME280;3207;42.648;23.406;2023-04-26T13:53:49;99851.09;;;20.13;nan
6349;BME280;3207;42.648;23.406;2023-04-26T13:56:16;99859.91;;;20.05;nan
6349;BME280;3207;42.648;23.406;2023-04-26T13:58:45;99856.06;;;19.85;nan
6349;BME280;3207;42.648;23.406;2023-04-26T14:01:12;99853.47;;;19.77;nan
6349;BME280;3207;42.648;23.406;2023-04-26T14:03:39;99799.63;;;19.37;nan
6349;BME280;3207;42.648;23.406;2023-04-26T14:06:08;99837.50;;;19.85;nan
6349;BME280;3207;42.648;23.406;2023-04-26T14:08:35;99842.63;;;19.86;nan
6349;BME280;3207;42.648;23.406;2023-04-26T14:11:02;99850.28;;;19.81;nan
6349;BME280;3207;42.648;23.406;2023-04-26T14:13:29;99839.66;;;19.58;nan
6349;BME280;3207;42.648;23.406;2023-04-26T14:15:56;99836.66;;;19.53;nan
6349;BME280;3207;42.648;23.406;2023-04-26T14:18:23;99833.28;;;19.67;nan
6349;BME280;3207;42.648;23.406;2023-04-26T14:20:50;99835.16;;;19.59;nan
6349;BME280;3207;42.648;23.406;2023-04-26T14:23:18;99820.94;;;19.44;nan
6349;BME280;3207;42.648;23.406;2023-04-26T14:25:45;99843.34;;;19.33;nan
6349;BME280;3207;42.648;23.406;2023-04-26T14:28:12;99844.97;;;19.42;nan
6349;BME280;3207;42.648;23.406;2023-04-26T14:30:40;99846.50;;;19.76;nan
6349;BME280;3207;42.648;23.406;2023-04-26T14:33:07;99842.22;;;19.97;nan
6349;BME280;3207;42.648;23.406;2023-04-26T14:35:34;99838.81;;;20.12;nan
6349;BME280;3207;42.648;23.406;2023-04-26T14:38:01;99808.91;;;19.95;nan
6349;BME280;3207;42.648;23.406;2023-04-26T14:40:29;99835.03;;;20.06;nan
6349;BME280;3207;42.648;23.406;2023-04-26T14:42:56;99841.75;;;19.94;nan
6349;BME280;3207;42.648;23.406;2023-04-26T14:45:23;99838.28;;;19.62;nan
6349;BME280;3207;42.648;23.406;2023-04-26T14:47:49;99840.59;;;19.65;nan
6349;BME280;3207;42.648;23.406;2023-04-26T14:50:16;99831.63;;;19.66;nan
6349;BME280;3207;42.648;23.406;2023-04-26T14:52:44;99839.28;;;19.61;nan
6349;BME280;3207;42.648;23.406;2023-04-26T14:55:16;99839.97;;;19.55;nan
6349;BME280;3207;42.648;23.406;2023-04-26T14:57:45;99839.50;;;19.44;nan
6349;BME280;3207;42.648;23.406;2023-04-26T15:00:12;99832.47;;;19.20;nan
6349;BME280;3207;42.648;23.406;2023-04-26T15:02:41;99838.59;;;19.20;nan
6349;BME280;3207;42.648;23.406;2023-04-26T15:05:08;99840.59;;;19.26;nan
6349;BME280;3207;42.648;23.406;2023-04-26T15:07:35;99838.22;;;19.31;nan
6349;BME280;3207;42.648;23.406;2023-04-26T15:10:02;99843.69;;;19.38;nan
6349;BME280;3207;42.648;23.406;2023-04-26T15:12:30;99836.56;;;19.38;nan
6349;BME280;3207;42.648;23.406;2023-04-26T15:14:58;99847.78;;;19.41;nan
6349;BME280;3207;42.648;23.406;2023-04-26T15:17:25;99849.22;;;19.12;nan
6349;BME280;3207;42.648;23.406;2023-04-26T15:19:53;99848.47;;;18.95;nan
6349;BME280;3207;42.648;23.406;2023-04-26T15:22:20;99846.66;;;18.80;nan
6349;BME280;3207;42.648;23.406;2023-04-26T15:24:47;99848.66;;;18.70;nan
6349;BME280;3207;42.648;23.406;2023-04-26T15:27:15;99842.03;;;18.49;nan
6349;BME280;3207;42.648;23.406;2023-04-26T15:29:42;99846.97;;;18.36;nan
6349;BME280;3207;42.648;23.406;2023-04-26T15:32:11;99849.97;;;18.25;nan
6349;BME280;3207;42.648;23.406;2023-04-26T15:34:39;99853.75;;;17.98;nan
6349;BME280;3207;42.648;23.406;2023-04-26T15:37:07;99850.59;;;18.03;nan
6349;BME280;3207;42.648;23.406;2023-04-26T15:39:34;99853.75;;;17.98;nan
6349;BME280;3207;42.648;23.406;2023-04-26T15:42:01;99849.75;;;17.86;nan
6349;BME280;3207;42.648;23.406;2023-04-26T15:44:28;99850.41;;;17.88;nan
6349;BME280;3207;42.648;23.406;2023-04-26T15:46:56;99847.63;;;17.89;nan
6349;BME280;3207;42.648;23.406;2023-04-26T15:49:24;99851.09;;;18.06;nan
6349;BME280;3207;42.648;23.406;2023-04-26T15:51:51;99852.91;;;18.06;nan
6349;BME280;3207;42.648;23.406;2023-04-26T15:54:17;99841.50;;;17.97;nan
6349;BME280;3207;42.648;23.406;2023-04-26T15:56:53;99848.25;;;17.91;nan
6349;BME280;3207;42.648;23.406;2023-04-26T15:59:20;99846.06;;;17.71;nan
6349;BME280;3207;42.648;23.406;2023-04-26T16:01:47;99849.31;;;17.56;nan
6349;BME280;3207;42.648;23.406;2023-04-26T16:04:14;99845.69;;;17.58;nan
6349;BME280;3207;42.648;23.406;2023-04-26T16:06:42;99841.00;;;17.51;nan
6349;BME280;3207;42.648;23.406;2023-04-26T16:09:09;99823.75;;;17.31;nan
6349;BME280;3207;42.648;23.406;2023-04-26T16:11:39;99837.34;;;17.36;nan
6349;BME280;3207;42.648;23.406;2023-04-26T16:14:06;99847.84;;;17.28;nan
6349;BME280;3207;42.648;23.406;2023-04-26T16:16:33;99851.41;;;17.11;nan
6349;BME280;3207;42.648;23.406;2023-04-26T16:19:00;99844.44;;;17.02;nan
6349;BME280;3207;42.648;23.406;2023-04-26T16:21:27;99843.78;;;17.08;nan
6349;BME280;3207;42.648;23.406;2023-04-26T16:23:56;99846.09;;;17.03;nan
6349;BME280;3207;42.648;23.406;2023-04-26T16:26:24;99847.06;;;17.02;nan
6349;BME280;3207;42.648;23.406;2023-04-26T16:28:51;99845.13;;;17.04;nan
6349;BME280;3207;42.648;23.406;2023-04-26T16:31:19;99857.97;;;17.07;nan
6349;BME280;3207;42.648;23.406;2023-04-26T16:33:46;99850.53;;;17.02;nan
6349;BME280;3207;42.648;23.406;2023-04-26T16:36:13;99851.38;;;17.03;nan
6349;BME280;3207;42.648;23.406;2023-04-26T16:38:40;99854.78;;;16.95;nan
6349;BME280;3207;42.648;23.406;2023-04-26T16:41:09;99858.34;;;16.86;nan
6349;BME280;3207;42.648;23.406;2023-04-26T16:43:35;99857.19;;;16.80;nan
6349;BME280;3207;42.648;23.406;2023-04-26T16:46:04;99863.38;;;16.71;nan
6349;BME280;3207;42.648;23.406;2023-04-26T16:48:32;99871.16;;;16.73;nan
6349;BME280;3207;42.648;23.406;2023-04-26T16:50:59;99869.94;;;16.67;nan
6349;BME280;3207;42.648;23.406;2023-04-26T16:53:26;99870.94;;;16.66;nan
6349;BME280;3207;42.648;23.406;2023-04-26T16:55:53;99868.03;;;16.77;nan
6349;BME280;3207;42.648;23.406;2023-04-26T16:58:21;99865.41;;;16.77;nan
6349;BME280;3207;42.648;23.406;2023-04-26T17:00:48;99861.72;;;16.70;nan
6349;BME280;3207;42.648;23.406;2023-04-26T17:03:15;99869.25;;;16.65;nan
6349;BME280;3207;42.648;23.406;2023-04-26T17:05:43;99872.34;;;16.61;nan
6349;BME280;3207;42.648;23.406;2023-04-26T17:08:11;99878.75;;;16.76;nan
6349;BME280;3207;42.648;23.406;2023-04-26T17:10:38;99876.25;;;16.74;nan
6349;BME280;3207;42.648;23.406;2023-04-26T17:13:06;99876.63;;;16.79;nan
6349;BME280;3207;42.648;23.406;2023-04-26T17:15:34;99882.59;;;16.81;nan
6349;BME280;3207;42.648;23.406;2023-04-26T17:18:02;99880.16;;;16.62;nan
6349;BME280;3207;42.648;23.406;2023-04-26T17:20:35;99879.06;;;16.55;nan
6349;BME280;3207;42.648;23.406;2023-04-26T17:23:03;99854.88;;;16.24;nan
6349;BME280;3207;42.648;23.406;2023-04-26T17:25:30;99889.78;;;16.36;nan
6349;BME280;3207;42.648;23.406;2023-04-26T17:27:57;99887.38;;;16.25;nan
6349;BME280;3207;42.648;23.406;2023-04-26T17:30:24;99896.56;;;16.21;nan
6349;BME280;3207;42.648;23.406;2023-04-26T17:32:52;99896.88;;;16.18;nan
6349;BME280;3207;42.648;23.406;2023-04-26T17:35:19;99900.78;;;16.14;nan
6349;BME280;3207;42.648;23.406;2023-04-26T17:37:46;99913.28;;;16.11;nan
6349;BME280;3207;42.648;23.406;2023-04-26T17:40:14;99912.41;;;16.21;nan
6349;BME280;3207;42.648;23.406;2023-04-26T17:42:41;99911.88;;;16.17;nan
6349;BME280;3207;42.648;23.406;2023-04-26T17:45:09;99914.50;;;15.99;nan
6349;BME280;3207;42.648;23.406;2023-04-26T17:47:36;99916.19;;;15.91;nan
6349;BME280;3207;42.648;23.406;2023-04-26T17:50:05;99922.78;;;16.04;nan
6349;BME280;3207;42.648;23.406;2023-04-26T17:52:32;99922.97;;;15.93;nan
6349;BME280;3207;42.648;23.406;2023-04-26T17:54:59;99931.63;;;15.86;nan
6349;BME280;3207;42.648;23.406;2023-04-26T17:57:26;99932.06;;;15.81;nan
6349;BME280;3207;42.648;23.406;2023-04-26T17:59:53;99937.88;;;15.85;nan
6349;BME280;3207;42.648;23.406;2023-04-26T18:02:19;99932.38;;;15.78;nan
6349;BME280;3207;42.648;23.406;2023-04-26T18:04:46;99940.94;;;15.80;nan
6349;BME280;3207;42.648;23.406;2023-04-26T18:07:15;99953.75;;;15.75;nan
6349;BME280;3207;42.648;23.406;2023-04-26T18:09:42;99951.47;;;15.80;nan
6349;BME280;3207;42.648;23.406;2023-04-26T18:12:08;99930.75;;;15.67;nan
6349;BME280;3207;42.648;23.406;2023-04-26T18:14:35;99956.69;;;15.90;nan
6349;BME280;3207;42.648;23.406;2023-04-26T18:17:09;99961.69;;;15.93;nan
6349;BME280;3207;42.648;23.406;2023-04-26T18:19:36;99954.47;;;15.95;nan
6349;BME280;3207;42.648;23.406;2023-04-26T18:22:03;99963.69;;;15.81;nan
6349;BME280;3207;42.648;23.406;2023-04-26T18:24:31;99956.47;;;15.83;nan
6349;BME280;3207;42.648;23.406;2023-04-26T18:26:58;99957.34;;;15.74;nan
6349;BME280;3207;42.648;23.406;2023-04-26T18:29:25;99963.31;;;15.76;nan
6349;BME280;3207;42.648;23.406;2023-04-26T18:31:52;99959.00;;;15.75;nan
6349;BME280;3207;42.648;23.406;2023-04-26T18:34:19;99964.84;;;15.69;nan
6349;BME280;3207;42.648;23.406;2023-04-26T18:36:46;99959.34;;;15.62;nan
6349;BME280;3207;42.648;23.406;2023-04-26T18:39:13;99974.28;;;15.71;nan
6349;BME280;3207;42.648;23.406;2023-04-26T18:41:41;99984.84;;;15.62;nan
6349;BME280;3207;42.648;23.406;2023-04-26T18:44:19;99976.25;;;15.60;nan
6349;BME280;3207;42.648;23.406;2023-04-26T18:46:47;99988.59;;;15.59;nan
6349;BME280;3207;42.648;23.406;2023-04-26T18:49:16;99990.72;;;15.56;nan
6349;BME280;3207;42.648;23.406;2023-04-26T18:51:46;99996.22;;;15.62;nan
6349;BME280;3207;42.648;23.406;2023-04-26T18:54:18;99995.41;;;15.62;nan
6349;BME280;3207;42.648;23.406;2023-04-26T18:56:47;99998.03;;;15.62;nan
6349;BME280;3207;42.648;23.406;2023-04-26T18:59:13;100001.50;;;15.53;nan
6349;BME280;3207;42.648;23.406;2023-04-26T19:01:40;100007.63;;;15.44;nan
6349;BME280;3207;42.648;23.406;2023-04-26T19:04:08;99960.81;;;15.18;nan
6349;BME280;3207;42.648;23.406;2023-04-26T19:06:36;100014.00;;;15.41;nan
6349;BME280;3207;42.648;23.406;2023-04-26T19:09:02;100012.94;;;15.34;nan
6349;BME280;3207;42.648;23.406;2023-04-26T19:11:34;100024.69;;;15.30;nan
6349;BME280;3207;42.648;23.406;2023-04-26T19:14:03;100031.78;;;15.29;nan
6349;BME280;3207;42.648;23.406;2023-04-26T19:16:30;100026.53;;;15.20;nan
6349;BME280;3207;42.648;23.406;2023-04-26T19:18:57;100020.56;;;15.08;nan
6349;BME280;3207;42.648;23.406;2023-04-26T19:21:26;100027.22;;;15.12;nan
6349;BME280;3207;42.648;23.406;2023-04-26T19:23:53;100028.22;;;15.01;nan
6349;BME280;3207;42.648;23.406;2023-04-26T19:26:22;100040.53;;;15.01;nan
6349;BME280;3207;42.648;23.406;2023-04-26T19:28:50;100038.19;;;14.98;nan
6349;BME280;3207;42.648;23.406;2023-04-26T19:31:18;100042.34;;;14.91;nan
6349;BME280;3207;42.648;23.406;2023-04-26T19:33:48;100040.81;;;14.88;nan
6349;BME280;3207;42.648;23.406;2023-04-26T19:36:16;100037.59;;;14.75;nan
6349;BME280;3207;42.648;23.406;2023-04-26T19:38:44;100045.22;;;14.78;nan
6349;BME280;3207;42.648;23.406;2023-04-26T19:41:12;100045.63;;;14.64;nan
6349;BME280;3207;42.648;23.406;2023-04-26T19:43:42;100039.09;;;14.49;nan
6349;BME280;3207;42.648;23.406;2023-04-26T19:46:10;100049.91;;;14.55;nan